Southern Sonoma County Latest

20 Stations

15 Minute Data
as of 5/4/26 9:10 PM PDT
Station Date Time Temp (°F) RH (%) Dew Pt (°F) Wind Spd (mph) Wind Dir (°) Wind Gust (mph) Latest Rain (In) Daily Rain (In) Daily Min Temp (°F) Daily Max Temp (°F)
Upper Rincon Valley 5/4/26 2100 50.2   1.6 97   10 49.5   1.4 1.0   0.8 SE | 145 2.7   1.6 0.00 0.00 45.5   3.1 61.8   0.9
Lower Bennett Valley 5/4/26 2100 51.6   2.1 96   4 50.4   3.2 1.2   0.4 WSW | 250 3.4   0.0 0.01 0.29 40.1   8.9 64.4   0.6
Kenwood (Wildwood) 5/4/26 2100 52.2   0.5 95   11 50.8   2.7 0.3   2.1 W | 264 1.4   3.6 0.01 0.32 43.9   7.7 65.1   1.4
Crane Creek (Ranch 62) 5/4/26 2100 52.4   0.2 98   11 51.7   3.3 1.1   1.0 ESE | 111 3.1   1.9 0.00 0.30 45.5   6.4 66.1   1.5
Rohnert Park-West (Stony Point) 5/4/26 2100 53.5   1.1 95   5 52.2   2.5 1.1   0.8 SE | 138 3.4   1.1 0.00 0.23 43.2   9.2 64.5   0.2
Rice-Spivak Vineyard 5/4/26 2100 52.7   1.0 - - - - - - - 41.3   10.0 66.3   0.2
Cartograph Wines Base 5/4/26 2100 52.3   0.3 97   3 51.6   0.5 2.1   2.9 SSW | 201 5.0   4.5 0.00 0.21 47.5   3.9 62.0   0.1
Cartograph Wines Remote 5/4/26 2100 52.8   0.5 - - - - - - - 46.3   5.8 65.4   1.4
Penngrove (Asellus) 5/4/26 2100 52.2   1.9 95   4 50.7   3.0 2.2   0.1 NNW | 346 5.1   0.9 0.00 0.00 41.4   8.6 66.6   1.7
Sonoma Valley (Bedrock) 5/4/26 2100 51.8   1.4 90   12 48.9   2.4 - - - 0.02 0.29 43.0   7.7 64.4   0.6
Sonoma-West (Arnold) 5/4/26 2100 53.4   0.5 92   13 51.1   3.6 2.0   0.7 NNW | 338 3.9   0.4 0.00 0.00 42.1   11.0 66.0   0.2
Sonoma Valley HS 5/4/26 2100 53.2   1.5 100   15 53.2   3.0 0.6   1.2 NNE | 20 1.8   2.0 0.00 0.00 43.5   9.6 65.8   0.6
Sonoma East (Bundschu01) 5/4/26 2100 53.4   1.8 92   14 51.2   2.7 2.0   0.9 NNE | 13 3.9   3.7 0.03 0.22 40.3   12.8 66.0   0.7
Sonoma-SE (Napoli) 5/4/26 2100 53.5   1.3 92   13 51.3   2.8 0.2   0.1 WNW | 294 3.1   1.0 0.01 0.15 42.0   11.1 66.7   0.7
Schellville (Sasaki) 2/7/26 1900 53.4   2.2 88   10 49.9   1.0 3.3   1.8 SW | 225 5.8   4.0 0.00 0.00 47.0   0.8 62.8   8.4
Petaluma (Ranch 10) 5/4/26 2100 52.8   0.6 94   10 51.3   2.4 1.3   0.5 N | 8 4.3   0.7 0.02 0.24 41.0   12.2 68.3   1.5
Carneros (Ranch 71) 5/4/26 2100 52.3   1.1 95   11 51.0   2.2 0.8   2.0 NNW | 342 3.3   1.9 0.02 0.15 47.1   4.9 64.7   0.6
Ricci Vineyards (Carneros) 5/4/26 2100 52.6   0.6 93   9 50.7   2.0 1.4   0.5 NNW | 338 3.3   0.1 0.02 0.17 42.0   10.5 65.9   0.2
Carneros Upper (Ranch 81) 5/4/26 2100 52.6   1.2 1   82 -53.7   102.3 0.9   4.6 N | 350 6.1   2.7 - - 46.7   5.4 64.5   0.2
Carneros Lower (Ranch 81) 5/4/26 2045 53.0   2.0 93   13 51.1   2.2 0.7   0.7 N | 5 2.3   0.7 0.00 0.02 42.6   10.4 68.5   0.9
Max     53.5 100 53.2 2.2 - 6.1 0.03 0.32 47.5 68.5
Avg     52.6 89 44.9 1.2 - 3.5 0.01 - - -
Min     50.2 1 -53.7 0.2 - 1.4 0.00 0.00 40.1 61.8